Wakefield, Rhode Island
Current Conditions -  °F | °C
As of 10:53 PM on Saturday 25 Oct 2014 (Local Time) from KUUU Reporting Station
Few Clouds Few Clouds  
Wind Chill: 61°   Ceiling: Unl
Heat Index: 61°   Visibility: 10mi
Dew Point: 51°   Wind: 5mph
Humidity: 70%   Direction: NA
Pressure: 29.56"   Gusts: NA
Location:  41.44°N, 71.5°W
Report Text: KUUU 260253Z AUTO VRB04KT 10SM FEW090 16/11 A2956 RMK AO2 SLP008 T01610106 58019
Loading
Personal Weather Stations






























Interactive Weather Map
Tropical Storm Tracking
New forecast layout! Learn more

10-Day Weather Forecast

Advertisements
Track Severe Weather on mobile